createdAt,value
2018-04-20T00:00:03.598Z,10.20
2018-04-20T00:01:03.787Z,10.10
2018-04-20T00:02:03.969Z,9.70
2018-04-20T00:03:04.153Z,9.50
2018-04-20T00:04:04.407Z,9.70
2018-04-20T00:05:04.459Z,10.40
2018-04-20T00:06:04.643Z,10.40
2018-04-20T00:07:04.922Z,10.20
2018-04-20T00:08:05.000Z,11.50
2018-04-20T00:09:05.188Z,11.00
2018-04-20T00:10:05.367Z,10.00
2018-04-20T00:11:05.542Z,10.60
2018-04-20T00:12:05.733Z,10.40
2018-04-20T00:13:05.925Z,10.90
2018-04-20T00:14:06.147Z,11.10
2018-04-20T00:15:06.353Z,10.80
2018-04-20T00:16:06.521Z,10.30
2018-04-20T00:17:06.706Z,10.30
2018-04-20T00:18:06.882Z,10.40
2018-04-20T00:19:07.138Z,10.40
2018-04-20T00:20:08.188Z,10.80
2018-04-20T00:21:07.508Z,10.20
2018-04-20T00:22:07.910Z,10.60
2018-04-20T00:23:07.938Z,10.90
2018-04-20T00:24:08.011Z,10.70
2018-04-20T00:25:08.198Z,10.30
2018-04-20T00:26:08.381Z,10.90
2018-04-20T00:27:08.563Z,10.80
2018-04-20T00:28:08.746Z,10.20
2018-04-20T00:29:08.925Z,9.60
2018-04-20T00:30:09.111Z,8.80
2018-04-20T00:31:09.293Z,9.20
2018-04-20T00:32:09.473Z,9.00
2018-04-20T00:33:09.641Z,7.80
2018-04-20T00:34:09.829Z,8.30
2018-04-20T00:35:10.020Z,8.90
2018-04-20T00:36:10.181Z,9.80
2018-04-20T00:37:10.349Z,9.10
2018-04-20T00:38:10.746Z,8.80
2018-04-20T00:39:10.734Z,9.70
2018-04-20T00:40:10.900Z,9.70
2018-04-20T00:41:11.067Z,10.20
2018-04-20T00:42:11.378Z,10.20
2018-04-20T00:43:11.482Z,10.70
2018-04-20T00:44:11.643Z,11.00
2018-04-20T00:45:11.820Z,10.70
2018-04-20T00:46:11.968Z,10.20
2018-04-20T00:47:12.488Z,10.30
2018-04-20T00:48:12.463Z,10.40
2018-04-20T00:49:12.624Z,11.10
2018-04-20T00:50:12.630Z,11.30
2018-04-20T00:51:12.802Z,10.70
2018-04-20T00:52:12.967Z,10.20
2018-04-20T00:53:13.142Z,11.20
2018-04-20T00:54:13.311Z,11.40
2018-04-20T00:55:13.483Z,11.00
2018-04-20T00:56:13.653Z,11.50
2018-04-20T00:57:13.817Z,11.50
2018-04-20T00:58:13.987Z,10.90
2018-04-20T00:59:14.157Z,11.10
2018-04-20T01:00:14.329Z,10.80
2018-04-20T01:01:14.765Z,11.30
2018-04-20T01:02:14.609Z,10.90
2018-04-20T01:03:14.806Z,11.20
2018-04-20T01:04:14.985Z,11.00
2018-04-20T01:05:15.159Z,11.00
2018-04-20T01:06:15.342Z,10.80
2018-04-20T01:07:15.524Z,10.80
2018-04-20T01:08:15.707Z,10.90
2018-04-20T01:09:15.976Z,11.20
2018-04-20T01:10:16.103Z,11.30
2018-04-20T01:11:16.138Z,11.00
2018-04-20T01:12:16.309Z,11.80
2018-04-20T01:13:16.477Z,10.50
2018-04-20T01:14:16.651Z,11.50
2018-04-20T01:15:16.828Z,11.00
2018-04-20T01:16:16.995Z,11.00
2018-04-20T01:17:17.298Z,11.40
2018-04-20T01:18:17.290Z,10.60
2018-04-20T01:19:17.462Z,10.60
2018-04-20T01:20:17.766Z,10.90
2018-04-20T01:21:17.761Z,10.60
2018-04-20T01:22:17.933Z,11.20
2018-04-20T01:23:18.101Z,10.90
2018-04-20T01:24:18.273Z,11.10
2018-04-20T01:25:18.437Z,10.90
2018-04-20T01:26:18.612Z,10.70
2018-04-20T01:27:18.961Z,11.00
2018-04-20T01:28:18.987Z,11.10
2018-04-20T01:29:19.169Z,10.60
2018-04-20T01:30:19.365Z,10.70
2018-04-20T01:31:19.529Z,10.40
2018-04-20T01:32:19.824Z,11.30
2018-04-20T01:33:19.884Z,11.00
2018-04-20T01:34:20.051Z,10.80
2018-04-20T01:35:20.223Z,10.90
2018-04-20T01:36:20.396Z,11.20
2018-04-20T01:37:20.559Z,10.80
2018-04-20T01:38:20.728Z,10.70
2018-04-20T01:39:20.901Z,10.80
2018-04-20T01:40:21.073Z,10.90
2018-04-20T01:41:21.237Z,10.90
2018-04-20T01:42:21.408Z,10.70
2018-04-20T01:43:21.569Z,10.90
2018-04-20T01:44:22.428Z,10.60
2018-04-20T01:45:22.104Z,10.90
2018-04-20T01:46:22.137Z,11.00
2018-04-20T01:47:22.438Z,10.90
2018-04-20T01:48:22.630Z,11.30
2018-04-20T01:49:22.886Z,11.00
2018-04-20T01:50:23.050Z,10.70
2018-04-20T01:51:23.144Z,10.90
2018-04-20T01:52:23.190Z,11.00
2018-04-20T01:53:23.386Z,11.20
2018-04-20T01:54:23.578Z,11.00
2018-04-20T01:55:23.798Z,11.30
2018-04-20T01:56:23.824Z,11.90
2018-04-20T01:57:23.993Z,11.70
2018-04-20T01:58:24.161Z,11.70
2018-04-20T01:59:24.333Z,11.40
2018-04-20T02:00:24.558Z,11.20
2018-04-20T02:01:24.659Z,11.60
2018-04-20T02:02:24.836Z,11.60
2018-04-20T02:03:25.267Z,11.30
2018-04-20T02:04:25.217Z,11.40
2018-04-20T02:05:25.389Z,11.40
2018-04-20T02:06:25.569Z,12.00
2018-04-20T02:07:25.738Z,11.50
2018-04-20T02:08:25.912Z,9.40
2018-04-20T02:09:26.082Z,10.30
2018-04-20T02:10:26.252Z,10.90
2018-04-20T02:11:26.434Z,10.40
2018-04-20T02:12:26.596Z,11.30
2018-04-20T02:13:26.775Z,11.00
2018-04-20T02:14:26.938Z,11.30
2018-04-20T02:15:27.100Z,11.30
2018-04-20T02:16:27.263Z,9.90
2018-04-20T02:17:27.444Z,10.70
2018-04-20T02:18:27.621Z,11.90
2018-04-20T02:19:28.268Z,11.40
2018-04-20T02:20:28.306Z,11.50
2018-04-20T02:21:29.053Z,11.50
2018-04-20T02:22:28.716Z,12.00
2018-04-20T02:23:28.860Z,12.20
2018-04-20T02:24:28.940Z,12.60
2018-04-20T02:25:29.202Z,12.50
2018-04-20T02:26:29.438Z,13.20
2018-04-20T02:27:29.383Z,13.20
2018-04-20T02:28:29.585Z,12.90
2018-04-20T02:29:29.514Z,12.20
2018-04-20T02:30:29.582Z,12.70
2018-04-20T02:31:29.751Z,12.80
2018-04-20T02:32:29.922Z,14.00
2018-04-20T02:33:30.090Z,12.90
2018-04-20T02:34:30.314Z,13.70
2018-04-20T02:35:30.426Z,12.60
2018-04-20T02:36:30.883Z,12.50
2018-04-20T02:37:30.742Z,12.60
2018-04-20T02:38:31.289Z,11.90
2018-04-20T02:39:31.496Z,12.20
2018-04-20T02:40:31.769Z,12.20
2018-04-20T02:41:31.880Z,12.30
2018-04-20T02:42:31.640Z,11.60
2018-04-20T02:43:31.952Z,11.90
2018-04-20T02:44:31.976Z,12.80
2018-04-20T02:45:32.304Z,13.00
2018-04-20T02:46:32.474Z,12.80
2018-04-20T02:47:32.721Z,13.40
2018-04-20T02:48:32.643Z,13.10
2018-04-20T02:49:32.806Z,13.00
2018-04-20T02:50:32.991Z,13.50
2018-04-20T02:51:33.151Z,13.20
2018-04-20T02:52:33.320Z,13.90
2018-04-20T02:53:33.485Z,13.50
2018-04-20T02:54:33.668Z,13.60
2018-04-20T02:55:33.814Z,13.90
2018-04-20T02:56:33.987Z,13.80
2018-04-20T02:57:34.159Z,14.10
2018-04-20T02:58:34.322Z,14.00
2018-04-20T02:59:34.482Z,13.70
2018-04-20T03:00:34.643Z,13.20
2018-04-20T03:01:34.817Z,13.40
2018-04-20T03:02:34.991Z,13.90
2018-04-20T03:03:35.156Z,14.70
2018-04-20T03:04:35.383Z,14.60
2018-04-20T03:05:35.532Z,15.20
2018-04-20T03:06:35.681Z,14.20
2018-04-20T03:07:35.870Z,13.50
2018-04-20T03:08:36.022Z,13.50
2018-04-20T03:09:36.195Z,13.40
2018-04-20T03:10:36.388Z,13.30
2018-04-20T03:11:36.513Z,13.80
2018-04-20T03:12:36.671Z,13.30
2018-04-20T03:13:36.837Z,13.80
2018-04-20T03:14:37.009Z,13.50
2018-04-20T03:15:37.181Z,13.60
2018-04-20T03:16:37.348Z,14.10
2018-04-20T03:17:37.506Z,13.60
2018-04-20T03:18:37.681Z,13.60
2018-04-20T03:19:38.015Z,13.90
2018-04-20T03:20:38.028Z,14.70
2018-04-20T03:21:38.194Z,13.10
2018-04-20T03:22:38.358Z,13.10
2018-04-20T03:23:38.557Z,13.40
2018-04-20T03:24:38.875Z,13.20
2018-04-20T03:25:38.908Z,13.50
2018-04-20T03:26:39.255Z,14.00
2018-04-20T03:27:40.415Z,13.70
2018-04-20T03:28:39.534Z,13.40
2018-04-20T03:29:39.573Z,14.00
2018-04-20T03:30:39.735Z,14.00
2018-04-20T03:31:40.943Z,14.30
2018-04-20T03:32:40.163Z,13.00
2018-04-20T03:33:40.351Z,13.30
2018-04-20T03:34:40.531Z,13.10
2018-04-20T03:35:40.707Z,12.80
2018-04-20T03:36:41.946Z,13.50
2018-04-20T03:37:41.155Z,13.30
2018-04-20T03:38:41.231Z,13.60
2018-04-20T03:39:41.499Z,13.70
2018-04-20T03:40:41.615Z,13.20
2018-04-20T03:41:42.423Z,13.60
2018-04-20T03:42:42.933Z,12.70
2018-04-20T03:43:42.137Z,13.70
2018-04-20T03:44:42.324Z,13.70
2018-04-20T03:45:42.393Z,14.30
2018-04-20T03:46:42.633Z,14.40
2018-04-20T03:47:42.765Z,14.10
2018-04-20T03:48:42.905Z,13.60
2018-04-20T03:49:43.022Z,13.40
2018-04-20T03:50:43.286Z,14.10
2018-04-20T03:51:44.449Z,14.00
2018-04-20T03:52:43.654Z,14.10
2018-04-20T03:53:43.887Z,14.60
2018-04-20T03:54:44.055Z,14.00
2018-04-20T03:55:44.253Z,14.00
2018-04-20T03:56:44.497Z,13.60
2018-04-20T03:57:44.631Z,13.90
2018-04-20T03:58:44.628Z,14.00
2018-04-20T03:59:44.800Z,13.70
2018-04-20T04:00:45.023Z,14.80
2018-04-20T04:01:45.343Z,14.70
2018-04-20T04:02:45.349Z,14.10
2018-04-20T04:03:45.691Z,14.20
2018-04-20T04:04:45.836Z,14.00
2018-04-20T04:05:46.014Z,13.90
2018-04-20T04:06:46.191Z,14.20
2018-04-20T04:07:46.973Z,14.30
2018-04-20T04:08:46.473Z,14.30
2018-04-20T04:09:46.557Z,14.70
2018-04-20T04:10:47.396Z,14.60
2018-04-20T04:11:46.818Z,14.60
2018-04-20T04:12:48.429Z,14.10
2018-04-20T04:13:47.243Z,14.40
2018-04-20T04:14:47.568Z,15.50
2018-04-20T04:15:47.621Z,14.80
2018-04-20T04:16:47.681Z,13.70
2018-04-20T04:17:47.988Z,14.30
2018-04-20T04:18:48.145Z,14.00
2018-04-20T04:19:48.378Z,14.00
2018-04-20T04:20:48.515Z,13.80
2018-04-20T04:21:48.726Z,13.50
2018-04-20T04:22:48.852Z,13.70
2018-04-20T04:23:49.184Z,14.20
2018-04-20T04:24:49.304Z,14.40
2018-04-20T04:25:49.432Z,14.20
2018-04-20T04:26:49.580Z,14.00
2018-04-20T04:27:49.736Z,13.30
2018-04-20T04:28:49.916Z,13.60
2018-04-20T04:29:50.001Z,13.40
2018-04-20T04:30:50.175Z,12.80
2018-04-20T04:31:50.323Z,13.60
2018-04-20T04:32:50.609Z,12.80
2018-04-20T04:33:51.424Z,12.70
2018-04-20T04:34:51.026Z,13.20
2018-04-20T04:35:51.170Z,12.70
2018-04-20T04:36:51.405Z,12.60
2018-04-20T04:37:52.842Z,12.60
2018-04-20T04:38:52.557Z,12.90
2018-04-20T04:39:52.108Z,12.70
2018-04-20T04:40:53.441Z,13.00
2018-04-20T04:41:52.133Z,14.10
2018-04-20T04:42:52.259Z,14.10
2018-04-20T04:43:52.442Z,13.80
2018-04-20T04:44:52.643Z,12.90
2018-04-20T04:45:52.813Z,12.60
2018-04-20T04:46:52.993Z,12.50
2018-04-20T04:47:53.282Z,12.80
2018-04-20T04:48:53.518Z,13.50
2018-04-20T04:49:53.406Z,12.70
2018-04-20T04:50:53.782Z,12.90
2018-04-20T04:51:54.090Z,12.70
2018-04-20T04:52:54.086Z,13.00
2018-04-20T04:53:54.221Z,13.00
2018-04-20T04:54:54.324Z,13.40
2018-04-20T04:55:54.391Z,14.20
2018-04-20T04:56:54.532Z,14.10
2018-04-20T04:57:54.767Z,14.50
2018-04-20T04:58:55.010Z,14.80
2018-04-20T04:59:55.244Z,14.30
2018-04-20T05:00:55.434Z,14.10
2018-04-20T05:01:55.427Z,13.90
2018-04-20T05:02:55.696Z,14.20
2018-04-20T05:03:55.756Z,13.60
2018-04-20T05:04:56.093Z,14.10
2018-04-20T05:06:50.595Z,13.80
2018-04-20T05:07:49.400Z,12.20
2018-04-20T05:08:49.729Z,11.90
2018-04-20T05:09:49.861Z,12.10
2018-04-20T05:10:50.127Z,12.00
2018-04-20T05:11:50.044Z,11.90
2018-04-20T05:12:50.265Z,12.80
2018-04-20T05:13:50.502Z,12.80
2018-04-20T05:14:50.711Z,12.50
2018-04-20T05:15:50.864Z,12.90
2018-04-20T05:16:51.280Z,13.30
2018-04-20T05:17:51.521Z,13.50
2018-04-20T05:18:51.370Z,13.50
2018-04-20T05:19:51.548Z,13.60
2018-04-20T05:20:51.615Z,13.50
2018-04-20T05:21:58.594Z,13.90
2018-04-20T05:22:52.231Z,13.80
2018-04-20T05:23:52.266Z,14.20
2018-04-20T05:24:52.512Z,13.90
2018-04-20T05:25:52.636Z,13.80
2018-04-20T05:26:52.702Z,13.70
2018-04-20T05:27:52.951Z,14.20
2018-04-20T05:28:53.640Z,13.00
2018-04-20T05:29:53.431Z,13.70
2018-04-20T05:30:53.677Z,12.60
2018-04-20T05:31:54.315Z,13.10
2018-04-20T05:32:54.153Z,13.30
2018-04-20T05:33:54.251Z,12.30
2018-04-20T05:34:54.369Z,12.40
2018-04-20T05:35:54.617Z,12.40
2018-04-20T05:36:54.607Z,11.50
2018-04-20T05:37:54.876Z,11.80
2018-04-20T05:38:55.019Z,11.20
2018-04-20T05:39:55.231Z,11.50
2018-04-20T05:40:55.305Z,11.10
2018-04-20T05:41:55.475Z,10.50
2018-04-20T05:42:55.653Z,10.60
2018-04-20T05:43:55.814Z,10.40
2018-04-20T05:44:55.982Z,10.30
2018-04-20T05:45:56.164Z,10.20
2018-04-20T05:46:56.333Z,9.90
2018-04-20T05:47:56.505Z,10.30
2018-04-20T05:48:56.667Z,10.10
2018-04-20T05:49:56.848Z,9.60
2018-04-20T05:50:57.017Z,10.40
2018-04-20T05:51:57.189Z,10.10
2018-04-20T05:52:57.338Z,9.60
2018-04-20T05:53:57.505Z,9.40
2018-04-20T05:54:57.678Z,9.10
2018-04-20T05:55:57.844Z,9.10
2018-04-20T05:56:58.012Z,9.00
2018-04-20T05:57:58.185Z,8.90
2018-04-20T05:58:58.355Z,9.10
2018-04-20T05:59:58.524Z,9.90
2018-04-20T06:00:58.690Z,8.90
2018-04-20T06:01:58.872Z,9.60
2018-04-20T06:02:59.034Z,8.90
2018-04-20T06:03:59.202Z,9.30
2018-04-20T06:04:59.375Z,9.60
2018-04-20T06:05:59.547Z,9.10
2018-04-20T06:06:59.751Z,9.40
2018-04-20T06:07:59.881Z,9.50
2018-04-20T06:09:00.049Z,8.80
2018-04-20T06:10:00.221Z,9.60
2018-04-20T06:11:00.390Z,9.40
2018-04-20T06:12:00.556Z,8.30
2018-04-20T06:13:00.727Z,8.90
2018-04-20T06:14:00.899Z,9.30
2018-04-20T06:15:01.079Z,9.40
2018-04-20T06:16:01.232Z,9.60
2018-04-20T06:17:01.406Z,9.40
2018-04-20T06:18:01.584Z,10.00
2018-04-20T06:19:01.742Z,10.20
2018-04-20T06:20:01.919Z,9.90
2018-04-20T06:21:02.086Z,9.70
2018-04-20T06:22:02.255Z,10.10
2018-04-20T06:23:02.447Z,10.00
2018-04-20T06:24:02.610Z,10.50
2018-04-20T06:25:02.816Z,10.90
2018-04-20T06:26:02.962Z,10.70
2018-04-20T06:27:03.124Z,10.80
2018-04-20T06:28:03.297Z,10.90
2018-04-20T06:29:03.465Z,11.20
2018-04-20T06:30:03.637Z,10.80
2018-04-20T06:31:03.805Z,10.50
2018-04-20T06:32:03.974Z,11.00
2018-04-20T06:33:04.151Z,10.70
2018-04-20T06:34:04.310Z,10.90
2018-04-20T06:35:04.487Z,10.70
2018-04-20T06:36:04.655Z,10.80
2018-04-20T06:37:04.830Z,11.80
2018-04-20T06:38:04.990Z,10.80
2018-04-20T06:39:05.162Z,10.90
2018-04-20T06:40:05.330Z,11.00
2018-04-20T06:41:05.500Z,11.20
2018-04-20T06:42:05.675Z,10.70
2018-04-20T06:43:05.845Z,11.10
2018-04-20T06:44:06.009Z,11.50
2018-04-20T06:45:06.178Z,11.60
2018-04-20T06:46:06.350Z,11.80
2018-04-20T06:47:06.521Z,11.40
2018-04-20T06:48:06.692Z,11.30
2018-04-20T06:49:06.860Z,11.40
2018-04-20T06:50:07.027Z,11.20
2018-04-20T06:51:07.194Z,11.60
2018-04-20T06:52:07.366Z,12.20
2018-04-20T06:53:07.538Z,11.70
2018-04-20T06:54:07.705Z,11.80
2018-04-20T06:55:07.886Z,11.80
2018-04-20T06:56:08.052Z,12.50
2018-04-20T06:57:08.234Z,11.40
2018-04-20T06:58:08.402Z,12.10
2018-04-20T06:59:08.578Z,11.70
2018-04-20T07:00:08.742Z,11.60
2018-04-20T07:01:08.918Z,11.80
2018-04-20T07:02:09.088Z,11.50
2018-04-20T07:03:09.255Z,11.70
2018-04-20T07:04:09.424Z,11.60
2018-04-20T07:05:09.592Z,11.40
2018-04-20T07:06:09.764Z,12.00
2018-04-20T07:07:09.936Z,12.30
2018-04-20T07:08:10.107Z,12.20
2018-04-20T07:09:10.275Z,12.00
2018-04-20T07:10:10.453Z,12.30
2018-04-20T07:11:10.620Z,12.40
2018-04-20T07:12:10.794Z,12.20
2018-04-20T07:13:10.963Z,12.00
2018-04-20T07:14:11.129Z,11.90
2018-04-20T07:15:11.302Z,11.70
2018-04-20T07:16:11.476Z,11.80
2018-04-20T07:17:11.679Z,11.90
2018-04-20T07:18:11.814Z,12.20
2018-04-20T07:19:11.987Z,11.90
2018-04-20T07:20:12.154Z,12.60
2018-04-20T07:21:12.330Z,11.80
2018-04-20T07:22:12.506Z,12.20
2018-04-20T07:23:12.669Z,12.70
2018-04-20T07:24:12.840Z,12.80
2018-04-20T07:25:13.011Z,13.00
2018-04-20T07:26:13.184Z,12.40
2018-04-20T07:27:13.354Z,12.80
2018-04-20T07:28:13.544Z,12.90
2018-04-20T07:29:13.715Z,13.50
2018-04-20T07:30:13.885Z,13.20
2018-04-20T07:31:14.055Z,13.00
2018-04-20T07:32:14.231Z,13.50
2018-04-20T07:33:14.408Z,13.90
2018-04-20T07:34:14.576Z,12.90
2018-04-20T07:35:14.754Z,13.30
2018-04-20T07:36:14.940Z,13.90
2018-04-20T07:37:15.112Z,13.50
2018-04-20T07:38:15.279Z,14.10
2018-04-20T07:39:15.450Z,13.60
2018-04-20T07:40:15.621Z,12.80
2018-04-20T07:41:15.794Z,13.70
2018-04-20T07:42:15.967Z,13.40
2018-04-20T07:43:16.135Z,14.30
2018-04-20T07:44:16.307Z,14.50
2018-04-20T07:45:16.477Z,14.20
2018-04-20T07:46:16.653Z,14.10
2018-04-20T07:47:16.819Z,14.00
2018-04-20T07:48:16.998Z,13.90
2018-04-20T07:49:17.155Z,14.20
2018-04-20T07:50:17.333Z,13.80
2018-04-20T07:51:17.503Z,13.60
2018-04-20T07:52:17.682Z,14.30
2018-04-20T07:53:17.861Z,14.20
2018-04-20T07:54:18.032Z,14.80
2018-04-20T07:55:18.204Z,14.80
2018-04-20T07:56:18.380Z,14.20
2018-04-20T07:57:18.550Z,14.70
2018-04-20T07:58:18.725Z,13.90
2018-04-20T07:59:18.892Z,13.50
2018-04-20T08:00:19.086Z,14.70
2018-04-20T08:01:19.243Z,14.90
2018-04-20T08:02:19.647Z,14.10
2018-04-20T08:03:19.566Z,14.40
2018-04-20T08:04:19.734Z,13.90
2018-04-20T08:05:19.904Z,14.10
2018-04-20T08:06:20.077Z,15.20
2018-04-20T08:07:20.247Z,14.40
2018-04-20T08:08:20.429Z,14.30
2018-04-20T08:09:20.602Z,14.70
2018-04-20T08:10:20.773Z,14.40
2018-04-20T08:11:20.950Z,15.00
2018-04-20T08:12:21.120Z,14.60
2018-04-20T08:13:21.291Z,14.60
2018-04-20T08:14:21.465Z,14.60
2018-04-20T08:15:21.643Z,13.90
2018-04-20T08:16:21.816Z,14.30
2018-04-20T08:17:21.986Z,14.00
2018-04-20T08:18:22.161Z,14.10
2018-04-20T08:19:22.334Z,14.60
2018-04-20T08:20:22.510Z,13.50
2018-04-20T08:21:22.682Z,13.70
2018-04-20T08:22:22.852Z,13.40
2018-04-20T08:23:23.035Z,13.90
2018-04-20T08:24:23.202Z,13.60
2018-04-20T08:25:23.388Z,13.10
2018-04-20T08:26:23.560Z,13.10
2018-04-20T08:27:23.735Z,13.50
2018-04-20T08:28:23.912Z,13.20
2018-04-20T08:29:24.090Z,13.50
2018-04-20T08:30:24.260Z,13.30
2018-04-20T08:31:24.438Z,13.70
2018-04-20T08:32:24.611Z,13.80
2018-04-20T08:33:24.785Z,13.40
2018-04-20T08:34:24.963Z,12.50
2018-04-20T08:35:25.137Z,13.20
2018-04-20T08:36:25.304Z,11.50
2018-04-20T08:37:25.486Z,11.90
2018-04-20T08:38:25.668Z,11.60
2018-04-20T08:39:25.848Z,10.90
2018-04-20T08:40:26.008Z,11.70
2018-04-20T08:41:26.182Z,11.40
2018-04-20T08:42:26.363Z,11.80
2018-04-20T08:43:26.542Z,12.50
2018-04-20T08:44:26.727Z,12.30
2018-04-20T08:46:40.002Z,12.60
2018-04-20T08:47:40.173Z,11.60
2018-04-20T08:48:40.350Z,11.10
2018-04-20T08:49:40.527Z,9.70
2018-04-20T08:50:40.711Z,10.20
2018-04-20T08:51:40.888Z,10.30
2018-04-20T08:52:41.067Z,9.70
2018-04-20T08:53:41.246Z,11.10
2018-04-20T08:54:41.428Z,10.40
2018-04-20T08:55:41.603Z,11.50
2018-04-20T08:56:41.788Z,10.80
2018-04-20T08:57:41.961Z,9.40
2018-04-20T08:58:42.148Z,9.70
2018-04-20T08:59:42.326Z,8.90
2018-04-20T09:00:42.502Z,8.70
2018-04-20T09:01:42.684Z,9.30
2018-04-20T09:02:42.865Z,8.80
2018-04-20T09:03:43.043Z,9.20
2018-04-20T09:04:43.221Z,9.40
2018-04-20T09:05:43.404Z,10.00
2018-04-20T09:06:43.587Z,9.20
2018-04-20T09:07:43.782Z,10.10
2018-04-20T09:08:43.960Z,8.80
2018-04-20T09:09:44.141Z,9.30
2018-04-20T09:10:44.363Z,6.80
2018-04-20T09:11:44.513Z,7.40
2018-04-20T09:12:44.696Z,6.10
2018-04-20T09:13:44.874Z,6.30
2018-04-20T09:14:45.057Z,6.50
2018-04-20T09:15:45.237Z,7.50
2018-04-20T09:16:45.423Z,7.60
2018-04-20T09:17:45.605Z,6.60
2018-04-20T09:18:45.790Z,6.70
2018-04-20T09:19:45.974Z,6.60
2018-04-20T09:20:46.161Z,7.30
2018-04-20T09:21:46.345Z,7.00
2018-04-20T09:22:46.528Z,7.30
2018-04-20T09:23:46.714Z,6.80
2018-04-20T09:24:46.904Z,6.50
2018-04-20T09:25:47.092Z,6.80
2018-04-20T09:26:47.277Z,6.90
2018-04-20T09:27:47.463Z,7.90
2018-04-20T09:28:47.645Z,7.00
2018-04-20T09:29:47.834Z,6.90
2018-04-20T09:30:48.019Z,6.70
2018-04-20T09:31:48.212Z,6.50
2018-04-20T09:32:48.395Z,6.20
2018-04-20T09:33:48.590Z,6.20
2018-04-20T09:34:48.775Z,6.00
2018-04-20T09:35:48.962Z,6.40
2018-04-20T09:36:49.148Z,6.30
2018-04-20T09:37:49.340Z,6.70
2018-04-20T09:38:49.527Z,5.50
2018-04-20T09:39:49.776Z,6.60
2018-04-20T09:40:49.905Z,6.10
2018-04-20T09:41:50.101Z,6.30
2018-04-20T09:42:50.284Z,6.40
2018-04-20T09:43:50.476Z,5.50
2018-04-20T09:44:50.661Z,5.20
2018-04-20T09:45:50.853Z,4.90
2018-04-20T09:46:51.043Z,5.10
2018-04-20T09:47:51.250Z,4.30
2018-04-20T09:48:51.442Z,4.10
2018-04-20T09:49:51.626Z,4.30
2018-04-20T09:50:51.818Z,3.60
2018-04-20T09:51:52.010Z,3.60
2018-04-20T09:52:52.204Z,3.80
2018-04-20T09:53:52.413Z,3.60
2018-04-20T09:54:52.616Z,3.60
2018-04-20T09:55:52.809Z,3.60
2018-04-20T09:56:52.997Z,4.00
2018-04-20T09:57:53.201Z,4.00
2018-04-20T09:58:53.391Z,3.70
2018-04-20T09:59:53.583Z,3.80
2018-04-20T10:00:53.776Z,4.10
2018-04-20T10:01:53.967Z,3.60
2018-04-20T10:02:54.157Z,3.70
2018-04-20T10:03:54.354Z,3.80
2018-04-20T10:04:54.543Z,3.90
2018-04-20T10:05:54.738Z,3.60
2018-04-20T10:06:54.929Z,3.70
2018-04-20T10:07:55.118Z,3.50
2018-04-20T10:08:55.319Z,3.60
2018-04-20T10:09:55.517Z,3.60
2018-04-20T10:10:55.710Z,5.10
2018-04-20T10:11:55.897Z,4.70
2018-04-20T10:12:56.113Z,3.90
2018-04-20T10:13:56.279Z,3.90
2018-04-20T10:14:56.477Z,4.30
2018-04-20T10:15:56.664Z,4.40
2018-04-20T10:16:56.858Z,4.30
2018-04-20T10:17:57.052Z,4.30
2018-04-20T10:18:57.244Z,4.40
2018-04-20T10:19:57.437Z,4.30
2018-04-20T10:20:57.630Z,4.00
2018-04-20T10:21:57.828Z,4.40
2018-04-20T10:22:58.016Z,3.70
2018-04-20T10:23:58.212Z,3.60
2018-04-20T10:24:58.400Z,3.90
2018-04-20T10:25:58.592Z,3.50
2018-04-20T10:26:58.782Z,3.40
2018-04-20T10:27:58.973Z,3.40
2018-04-20T10:28:59.169Z,3.70
2018-04-20T10:29:59.388Z,3.80
2018-04-20T10:30:59.602Z,3.90
2018-04-20T10:31:59.780Z,3.50
2018-04-20T10:32:59.977Z,3.60
2018-04-20T10:34:00.173Z,3.60
2018-04-20T10:35:00.369Z,3.20
2018-04-20T10:36:00.578Z,3.50
2018-04-20T10:37:00.763Z,3.80
2018-04-20T10:38:00.954Z,3.50
2018-04-20T10:39:01.145Z,3.50
2018-04-20T10:40:01.343Z,3.60
2018-04-20T10:41:01.569Z,3.50
2018-04-20T10:42:01.725Z,3.00
2018-04-20T10:43:01.924Z,4.10
2018-04-20T10:44:02.121Z,3.70
2018-04-20T10:45:02.319Z,3.50
2018-04-20T10:46:02.510Z,3.50
2018-04-20T10:47:02.742Z,3.30
2018-04-20T10:48:02.905Z,3.30
2018-04-20T10:49:03.093Z,3.40
2018-04-20T10:50:03.294Z,3.40
2018-04-20T10:51:03.491Z,3.60
2018-04-20T10:52:03.695Z,3.40
2018-04-20T10:53:03.888Z,3.60
2018-04-20T10:54:04.085Z,3.70
2018-04-20T10:55:04.288Z,3.50
2018-04-20T10:56:04.489Z,3.20
2018-04-20T10:57:04.694Z,3.60
2018-04-20T10:58:04.885Z,3.50
2018-04-20T10:59:05.097Z,3.60
2018-04-20T11:00:05.286Z,3.20
2018-04-20T11:01:05.493Z,3.50
2018-04-20T11:02:05.689Z,3.70
2018-04-20T11:03:05.881Z,3.50
2018-04-20T11:04:06.084Z,3.20
2018-04-20T11:05:06.270Z,3.40
2018-04-20T11:06:06.471Z,3.30
2018-04-20T11:07:06.676Z,3.30
2018-04-20T11:08:06.872Z,3.40
2018-04-20T11:09:07.069Z,3.40
2018-04-20T11:10:07.274Z,3.20
2018-04-20T11:11:07.478Z,3.10
2018-04-20T11:12:07.676Z,3.50
2018-04-20T11:13:07.880Z,3.00
2018-04-20T11:14:08.072Z,3.10
2018-04-20T11:15:08.266Z,3.10
2018-04-20T11:16:08.469Z,3.20
2018-04-20T11:17:08.675Z,3.30
2018-04-20T11:18:08.870Z,3.20
2018-04-20T11:19:09.067Z,3.20
2018-04-20T11:20:09.256Z,2.90
2018-04-20T11:21:09.461Z,3.20
2018-04-20T11:23:55.864Z,3.00
2018-04-20T11:24:56.053Z,3.10
2018-04-20T11:25:56.351Z,3.00
2018-04-20T11:26:56.453Z,3.10
2018-04-20T11:27:56.656Z,3.10
2018-04-20T11:28:56.842Z,3.10
2018-04-20T11:29:57.041Z,2.90
2018-04-20T11:30:57.244Z,2.80
2018-04-20T11:31:57.437Z,3.10
2018-04-20T11:32:57.636Z,3.70
2018-04-20T11:33:57.838Z,3.30
2018-04-20T11:34:58.034Z,3.40
2018-04-20T11:35:58.229Z,2.90
2018-04-20T11:36:58.439Z,3.10
2018-04-20T11:37:58.630Z,3.20
2018-04-20T11:38:58.865Z,3.10
2018-04-20T11:39:59.066Z,2.80
2018-04-20T11:40:59.271Z,2.90
2018-04-20T11:41:59.474Z,2.80
2018-04-20T11:42:59.672Z,2.70
2018-04-20T11:43:59.888Z,3.10
2018-04-20T11:45:00.080Z,2.80
2018-04-20T11:46:00.282Z,3.10
2018-04-20T11:47:00.489Z,2.90
2018-04-20T11:48:00.686Z,3.10
2018-04-20T11:49:00.881Z,3.00
2018-04-20T11:50:01.088Z,2.60
2018-04-20T11:51:01.610Z,2.70
2018-04-20T11:52:01.576Z,2.80
2018-04-20T11:53:01.721Z,2.30
2018-04-20T11:54:01.953Z,3.00
2018-04-20T11:55:02.117Z,2.50
2018-04-20T11:56:02.321Z,2.90
2018-04-20T11:57:02.524Z,2.90
2018-04-20T11:58:02.720Z,2.90
2018-04-20T11:59:02.920Z,2.70
2018-04-20T12:00:03.119Z,2.70
2018-04-20T12:01:03.313Z,2.70
2018-04-20T12:02:03.521Z,2.60
2018-04-20T12:03:03.716Z,2.80
2018-04-20T12:04:03.916Z,2.80
2018-04-20T12:05:04.121Z,2.90
2018-04-20T12:06:04.321Z,2.50
2018-04-20T12:07:04.574Z,2.80
2018-04-20T12:08:04.723Z,3.10
2018-04-20T12:09:04.927Z,2.70
2018-04-20T12:10:05.118Z,3.00
2018-04-20T12:11:05.328Z,2.90
2018-04-20T12:12:05.521Z,3.20
2018-04-20T12:13:05.727Z,3.00
2018-04-20T12:14:05.924Z,3.00
2018-04-20T12:15:06.132Z,2.60
2018-04-20T12:16:06.333Z,2.80
2018-04-20T12:17:06.601Z,2.80
2018-04-20T12:18:06.749Z,2.70
2018-04-20T12:19:06.966Z,3.00
2018-04-20T12:20:07.129Z,2.80
2018-04-20T12:21:07.333Z,2.60
2018-04-20T12:22:07.531Z,2.70
2018-04-20T12:23:07.732Z,2.90
2018-04-20T12:24:07.930Z,2.80
2018-04-20T12:25:08.132Z,3.00
2018-04-20T12:26:09.002Z,2.90
2018-04-20T12:27:08.564Z,2.90
2018-04-20T12:28:08.774Z,3.10
2018-04-20T12:29:08.976Z,2.70
2018-04-20T12:30:09.178Z,2.60
2018-04-20T12:31:09.443Z,2.60
2018-04-20T12:32:09.573Z,2.70
2018-04-20T12:33:09.768Z,2.70
2018-04-20T12:34:09.970Z,2.70
2018-04-20T12:35:10.164Z,2.60
2018-04-20T12:36:10.357Z,2.60
2018-04-20T12:37:10.576Z,2.60
2018-04-20T12:38:10.772Z,2.70
2018-04-20T12:39:10.965Z,2.10
2018-04-20T12:40:11.806Z,2.50
2018-04-20T12:41:11.386Z,2.40
2018-04-20T12:42:11.589Z,2.70
2018-04-20T12:43:11.773Z,3.00
2018-04-20T12:44:11.996Z,2.50
2018-04-20T12:45:12.165Z,2.40
2018-04-20T12:46:12.364Z,2.30
2018-04-20T12:47:12.564Z,2.30
2018-04-20T12:48:12.753Z,2.50
2018-04-20T12:49:12.949Z,2.40
2018-04-20T12:51:06.777Z,2.40
2018-04-20T12:52:06.476Z,2.40
2018-04-20T12:53:06.672Z,2.40
2018-04-20T12:54:06.867Z,2.50
2018-04-20T12:55:07.053Z,2.50
2018-04-20T12:57:00.359Z,2.80
2018-04-20T12:58:00.548Z,2.40
2018-04-20T12:59:00.745Z,2.30
2018-04-20T13:00:00.928Z,2.70
2018-04-20T13:01:01.116Z,2.30
2018-04-20T13:02:01.314Z,2.50
2018-04-20T13:03:01.507Z,2.30
2018-04-20T13:04:01.695Z,2.50
2018-04-20T13:05:01.891Z,2.50
2018-04-20T13:06:02.078Z,2.40
2018-04-20T13:07:02.272Z,2.50
2018-04-20T13:08:02.463Z,2.60
2018-04-20T13:09:02.657Z,2.70
2018-04-20T13:10:02.959Z,3.00